Time;durP1;ratioP1;P1;durP2;ratioP2;P2;SDS_P1;SDS_P2;PMS_P1;PMS_P2;Temp;Humidity;BMP_temperature;BMP_pressure;BME280_temperature;BME280_humidity;BME280_pressure;Samples;Min_cycle;Max_cycle;Signal;HPM_P1;HPM_P2
2022/03/05 00:02:03;;;;;;;10.17;5.80;;;;;;;12.23;51.65;100899.09;5063715;28;20041;-80
2022/03/05 00:04:31;;;;;;;59.47;29.10;;;;;;;11.85;51.69;100834.22;5054656;28;20049;-82
2022/03/05 00:06:58;;;;;;;17.43;7.50;;;;;;;12.33;51.86;100915.88;5055067;28;20472;-80
2022/03/05 00:09:27;;;;;;;18.00;7.20;;;;;;;12.43;51.66;100912.22;5046021;28;20488;-81
2022/03/05 00:11:54;;;;;;;25.23;7.27;;;;;;;11.75;51.70;100817.41;5035800;28;20443;-79
2022/03/05 00:14:21;;;;;;;14.97;7.13;;;;;;;12.44;51.80;100899.88;5053096;28;20072;-80
2022/03/05 00:16:48;;;;;;;12.07;7.00;;;;;;;12.39;51.82;100897.09;5036051;28;20072;-82
2022/03/05 00:19:15;;;;;;;11.87;5.67;;;;;;;12.39;51.70;100892.34;5037212;28;20458;-82
2022/03/05 00:21:46;;;;;;;12.90;5.47;;;;;;;11.65;51.88;100767.06;5052147;28;20049;-84
2022/03/05 00:24:13;;;;;;;12.70;5.80;;;;;;;12.32;51.89;100873.03;5035030;28;20052;-83
2022/03/05 00:26:39;;;;;;;13.50;5.97;;;;;;;11.67;51.79;100759.25;5053302;28;20087;-84
2022/03/05 00:29:07;;;;;;;14.87;6.00;;;;;;;12.37;51.72;100865.72;5052249;28;20076;-77
2022/03/05 00:31:34;;;;;;;14.97;5.90;;;;;;;12.37;51.71;100860.97;5050579;28;20079;-79
2022/03/05 00:34:01;;;;;;;14.10;5.67;;;;;;;12.43;51.57;100856.19;5042933;28;20049;-79
2022/03/05 00:36:30;;;;;;;16.27;7.23;;;;;;;12.27;51.84;100852.59;5043440;28;20091;-76
2022/03/05 00:38:57;;;;;;;18.90;7.33;;;;;;;12.02;51.91;100817.94;5048768;28;20144;-76
2022/03/05 00:41:23;;;;;;;17.03;7.27;;;;;;;12.19;51.78;100854.03;5052024;28;20098;-77
2022/03/05 00:43:50;;;;;;;12.70;7.67;;;;;;;12.13;51.96;100852.34;5043373;28;20118;-75
2022/03/05 00:46:17;;;;;;;14.10;8.27;;;;;;;11.27;52.20;100738.59;5049528;28;20128;-76
2022/03/05 00:48:44;;;;;;;22.40;9.23;;;;;;;11.34;52.59;100775.50;5038205;28;20132;-76
2022/03/05 00:51:11;;;;;;;22.77;9.00;;;;;;;11.76;52.72;100847.06;5048674;28;20049;-74
2022/03/05 00:53:38;;;;;;;12.10;8.00;;;;;;;11.58;52.77;100840.91;5048634;28;20057;-74
2022/03/05 00:56:05;;;;;;;20.03;8.37;;;;;;;11.52;53.19;100835.59;5050772;28;20080;-75
2022/03/05 00:58:32;;;;;;;18.57;7.90;;;;;;;11.28;53.00;100785.00;5048452;28;20084;-76
2022/03/05 01:00:59;;;;;;;17.73;8.70;;;;;;;11.49;53.11;100837.03;5052119;28;20084;-75
2022/03/05 01:03:26;;;;;;;17.87;8.70;;;;;;;11.41;53.70;100831.97;5053213;28;20045;-75
2022/03/05 01:05:54;;;;;;;14.20;7.33;;;;;;;11.17;53.25;100805.69;5045917;28;20415;-82
2022/03/05 01:08:21;;;;;;;16.53;7.40;;;;;;;11.26;53.78;100837.56;5054482;28;20049;-73
2022/03/05 01:10:48;;;;;;;16.93;8.87;;;;;;;10.94;54.06;100790.28;5076837;28;20048;-75
2022/03/05 01:13:15;;;;;;;15.57;8.63;;;;;;;11.14;54.19;100823.84;5067236;28;20095;-79
2022/03/05 01:15:42;;;;;;;16.60;7.33;;;;;;;11.07;54.62;100826.91;5050114;28;20044;-81
2022/03/05 01:18:09;;;;;;;10.57;5.70;;;;;;;10.96;54.61;100814.06;5045844;28;20048;-81
2022/03/05 01:20:36;;;;;;;18.27;6.83;;;;;;;10.99;54.75;100819.09;5047213;28;20103;-80
2022/03/05 01:23:03;;;;;;;20.10;6.73;;;;;;;10.59;54.82;100753.63;5047875;28;22292;-79
2022/03/05 01:25:30;;;;;;;18.33;7.03;;;;;;;10.91;55.02;100809.31;5039335;28;20053;-79
2022/03/05 01:27:57;;;;;;;19.23;6.63;;;;;;;10.98;55.02;100817.41;5044281;28;20045;-79
2022/03/05 01:30:24;;;;;;;10.53;6.53;;;;;;;10.95;55.10;100825.53;5044702;28;20084;-73
2022/03/05 01:32:51;;;;;;;20.17;9.23;;;;;;;10.75;55.42;100803.97;5047258;28;20053;-72
2022/03/05 01:35:18;;;;;;;16.13;7.23;;;;;;;10.88;55.60;100825.78;5047151;28;20560;-75
2022/03/05 01:37:45;;;;;;;13.60;7.93;;;;;;;10.80;55.72;100818.78;5051156;28;20088;-73
2022/03/05 01:40:12;;;;;;;20.43;7.10;;;;;;;10.72;56.03;100810.94;5043219;28;20072;-77
2022/03/05 01:42:39;;;;;;;15.37;7.10;;;;;;;10.63;56.39;100819.03;5054354;28;20118;-76
2022/03/05 01:45:06;;;;;;;16.10;8.20;;;;;;;10.21;56.26;100744.56;5046740;28;20044;-79
2022/03/05 01:47:33;;;;;;;13.73;7.27;;;;;;;10.32;56.49;100773.38;5042610;28;20029;-75
2022/03/05 01:50:00;;;;;;;14.10;6.93;;;;;;;10.66;56.21;100806.44;5075531;28;20036;-75
2022/03/05 01:52:27;;;;;;;22.43;8.23;;;;;;;10.36;56.67;100777.31;5063579;28;20025;-75
2022/03/05 01:54:54;;;;;;;15.73;6.50;;;;;;;10.63;56.51;100810.63;5075720;28;20053;-76
2022/03/05 01:57:21;;;;;;;12.00;6.60;;;;;;;10.31;56.92;100762.50;5069705;28;20049;-75
2022/03/05 01:59:48;;;;;;;13.53;6.63;;;;;;;10.21;56.95;100754.88;5064959;28;20026;-75
2022/03/05 02:02:15;;;;;;;19.93;6.30;;;;;;;10.30;57.52;100772.00;5076087;28;20036;-77
2022/03/05 02:04:43;;;;;;;17.83;7.70;;;;;;;10.38;57.72;100800.19;5076537;28;20100;-75
2022/03/05 02:07:11;;;;;;;20.30;7.90;;;;;;;9.88;58.24;100742.19;5073579;28;20045;-75
2022/03/05 02:09:38;;;;;;;19.47;7.00;;;;;;;10.32;57.64;100801.28;5061771;28;20064;-77
2022/03/05 02:12:05;;;;;;;20.07;6.87;;;;;;;10.30;57.78;100797.13;5050959;28;20045;-77
2022/03/05 02:14:32;;;;;;;19.83;6.80;;;;;;;10.07;58.30;100781.63;5053118;28;20049;-77
2022/03/05 02:16:59;;;;;;;22.23;7.13;;;;;;;10.16;58.00;100797.56;5053637;28;20087;-77
2022/03/05 02:19:27;;;;;;;15.20;6.30;;;;;;;10.21;57.72;100794.78;5054364;28;20135;-80
2022/03/05 02:21:54;;;;;;;11.03;4.37;;;;;;;10.09;58.04;100791.41;5045159;28;20049;-78
2022/03/05 02:24:33;;;;;;;10.90;5.27;;;;;;;10.05;57.96;100795.00;5051945;28;20140;-76
2022/03/05 02:27:02;;;;;;;10.80;4.40;;;;;;;9.66;58.74;100754.34;5053094;28;20190;-76
2022/03/05 02:29:31;;;;;;;5.43;3.57;;;;;;;9.75;59.14;100790.09;5047728;28;20421;-76
2022/03/05 02:31:58;;;;;;;19.47;6.43;;;;;;;9.31;59.24;100726.25;5055508;28;20081;-79
2022/03/05 02:34:25;;;;;;;12.47;5.83;;;;;;;9.16;59.38;100710.22;5054328;28;20044;-86
2022/03/05 02:36:52;;;;;;;19.43;5.97;;;;;;;9.56;59.37;100779.38;5053562;28;20139;-79
2022/03/05 02:39:19;;;;;;;8.80;2.93;;;;;;;9.46;60.14;100768.16;5055821;28;20045;-78
2022/03/05 02:41:47;;;;;;;3.10;1.90;;;;;;;8.59;60.37;100647.69;5053169;28;20081;-80
2022/03/05 02:44:14;;;;;;;2.53;2.33;;;;;;;9.24;61.12;100779.41;5045856;28;20450;-79
2022/03/05 02:46:41;;;;;;;10.30;4.40;;;;;;;8.61;62.10;100700.31;5051188;28;20088;-79
2022/03/05 02:49:08;;;;;;;4.73;3.07;;;;;;;8.55;62.11;100699.44;5047048;28;20080;-80
2022/03/05 02:51:35;;;;;;;7.27;2.73;;;;;;;8.60;62.20;100707.81;5054507;28;20048;-79
2022/03/05 02:54:02;;;;;;;14.33;5.50;;;;;;;8.99;62.35;100774.44;5048335;28;20115;-75
2022/03/05 02:56:29;;;;;;;14.03;6.07;;;;;;;8.77;62.04;100730.81;5044987;28;20096;-74
2022/03/05 02:58:56;;;;;;;14.90;6.03;;;;;;;9.03;62.10;100767.25;5053662;28;20103;-75
2022/03/05 03:01:24;;;;;;;5.73;3.27;;;;;;;9.04;62.05;100768.94;5053966;28;20048;-77
2022/03/05 03:03:51;;;;;;;16.23;4.83;;;;;;;9.03;61.73;100756.13;5053942;28;20049;-76
2022/03/05 03:06:18;;;;;;;16.20;6.13;;;;;;;8.94;62.34;100736.25;5052078;28;20076;-77
2022/03/05 03:08:45;;;;;;;7.03;4.30;;;;;;;8.93;62.50;100750.47;5055419;28;20080;-76
2022/03/05 03:11:12;;;;;;;14.50;6.60;;;;;;;8.87;62.70;100734.81;5046139;28;20100;-75
2022/03/05 03:13:39;;;;;;;9.90;4.73;;;;;;;8.83;62.78;100728.09;5053608;28;20496;-79
2022/03/05 03:16:06;;;;;;;12.43;5.23;;;;;;;8.92;62.78;100721.78;5052013;28;20542;-76
2022/03/05 03:18:33;;;;;;;8.70;4.47;;;;;;;8.63;62.59;100673.06;5052875;28;20045;-77
2022/03/05 03:21:00;;;;;;;5.37;3.50;;;;;;;8.90;62.84;100723.13;5053566;28;20114;-79
2022/03/05 03:23:27;;;;;;;13.10;5.87;;;;;;;8.92;63.11;100732.06;5054407;28;20496;-82
2022/03/05 03:25:54;;;;;;;6.10;4.07;;;;;;;8.43;63.24;100662.56;5053582;28;20132;-88
2022/03/05 03:28:21;;;;;;;6.97;4.53;;;;;;;8.54;63.36;100670.75;5053701;28;20451;-87
2022/03/05 03:30:48;;;;;;;11.90;5.00;;;;;;;8.81;63.34;100696.88;5054114;28;20131;-86
2022/03/05 03:33:15;;;;;;;5.83;3.10;;;;;;;8.89;63.34;100715.88;5055945;28;20045;-81
2022/03/05 03:35:42;;;;;;;6.10;2.97;;;;;;;8.36;63.52;100634.94;5051541;28;20095;-83
2022/03/05 03:38:09;;;;;;;4.30;2.47;;;;;;;8.05;63.52;100587.34;5056146;28;20048;-81
2022/03/05 03:40:35;;;;;;;4.50;2.43;;;;;;;8.49;63.47;100650.38;5055889;28;20045;-84
2022/03/05 03:43:02;;;;;;;7.77;3.83;;;;;;;8.40;63.66;100643.63;5052459;28;20071;-84
2022/03/05 03:45:29;;;;;;;9.83;4.47;;;;;;;8.47;64.04;100653.41;5052263;28;20046;-85
2022/03/05 03:47:56;;;;;;;9.57;3.87;;;;;;;8.63;63.88;100685.03;5054819;28;20045;-83
2022/03/05 03:50:24;;;;;;;12.10;5.17;;;;;;;8.93;63.18;100705.91;5076109;28;20071;-80
2022/03/05 03:52:51;;;;;;;6.27;4.27;;;;;;;8.32;63.40;100628.22;5075365;28;20052;-82
2022/03/05 03:55:21;;;;;;;3.67;2.67;;;;;;;8.77;63.83;100696.56;5073591;28;20033;-83
2022/03/05 03:57:48;;;;;;;6.45;2.78;;;;;;;8.67;64.11;100697.31;5075203;28;20069;-82
2022/03/05 04:00:17;;;;;;;11.23;4.93;;;;;;;8.62;64.00;100683.34;5066196;28;20099;-83
2022/03/05 04:02:44;;;;;;;14.17;5.73;;;;;;;8.71;63.90;100692.88;5053907;28;20053;-81
2022/03/05 04:05:12;;;;;;;10.53;3.27;;;;;;;8.73;63.71;100685.13;5053077;28;20055;-82
2022/03/05 04:10:24;;;;;;;15.97;4.97;;;;;;;8.61;63.53;100659.38;5044928;28;20087;-82
2022/03/05 04:12:52;;;;;;;11.13;4.93;;;;;;;8.62;63.25;100654.69;5050468;28;20083;-82
2022/03/05 04:15:19;;;;;;;10.00;6.10;;;;;;;8.84;62.91;100666.53;5053318;28;20100;-80
2022/03/05 04:17:46;;;;;;;17.27;5.70;;;;;;;8.86;63.03;100672.69;5052252;28;20076;-80
2022/03/05 04:20:13;;;;;;;9.67;4.37;;;;;;;8.68;63.16;100648.03;5055340;28;20069;-80
2022/03/05 04:22:40;;;;;;;5.50;3.13;;;;;;;8.72;62.98;100646.41;5051070;28;20080;-80
2022/03/05 04:25:08;;;;;;;11.50;4.93;;;;;;;8.81;63.44;100664.28;5052491;28;20099;-79
2022/03/05 04:27:35;;;;;;;8.33;4.13;;;;;;;8.72;63.52;100661.19;5028440;28;20458;-79
2022/03/05 04:30:04;;;;;;;15.77;4.90;;;;;;;8.68;63.98;100665.59;5052054;28;20492;-80
2022/03/05 04:32:31;;;;;;;11.47;4.73;;;;;;;8.71;63.79;100653.91;5050764;28;20419;-81
2022/03/05 04:34:57;;;;;;;13.67;4.63;;;;;;;8.72;63.80;100647.25;5052298;28;20106;-79
2022/03/05 04:37:24;;;;;;;5.13;3.23;;;;;;;8.62;63.72;100635.19;5046816;28;20053;-79
2022/03/05 04:39:51;;;;;;;9.37;3.47;;;;;;;8.68;64.05;100651.69;5051255;28;20526;-79
2022/03/05 04:42:18;;;;;;;13.27;4.67;;;;;;;8.30;63.97;100589.50;5052086;28;20068;-80
2022/03/05 04:44:45;;;;;;;10.00;4.23;;;;;;;8.23;63.94;100583.31;5050695;28;20559;-79
2022/03/05 04:47:12;;;;;;;7.67;3.63;;;;;;;8.18;64.20;100568.56;5050593;28;20087;-80
2022/03/05 04:49:39;;;;;;;23.57;5.70;;;;;;;8.62;64.28;100644.38;5049114;28;20088;-85
2022/03/05 04:52:06;;;;;;;6.53;4.60;;;;;;;8.63;64.02;100646.06;5048816;28;20192;-78
2022/03/05 04:54:33;;;;;;;7.80;4.40;;;;;;;8.55;64.30;100641.00;5053206;28;20159;-84
2022/03/05 04:57:00;;;;;;;5.53;3.40;;;;;;;8.63;64.18;100643.28;5050812;28;20089;-86
2022/03/05 04:59:27;;;;;;;13.23;6.33;;;;;;;8.59;64.35;100636.56;5051730;28;20052;-79
2022/03/05 05:01:56;;;;;;;9.70;5.47;;;;;;;8.72;63.96;100638.06;5050311;28;20132;-80
2022/03/05 05:04:23;;;;;;;13.17;5.63;;;;;;;8.62;63.83;100616.53;5053773;28;20047;-76
2022/03/05 05:06:50;;;;;;;13.80;4.83;;;;;;;8.71;63.90;100636.38;5051898;28;20107;-78
2022/03/05 05:09:18;;;;;;;9.80;3.90;;;;;;;8.73;63.73;100635.00;5050473;28;20485;-83
2022/03/05 05:11:45;;;;;;;9.17;3.93;;;;;;;8.72;63.89;100640.84;5050224;28;20069;-82
2022/03/05 05:14:12;;;;;;;11.40;5.30;;;;;;;8.72;63.95;100638.91;5050779;28;20076;-86
2022/03/05 05:16:39;;;;;;;11.03;4.90;;;;;;;8.66;63.77;100628.81;5050388;28;20056;-82
2022/03/05 05:19:24;;;;;;;14.60;6.43;;;;;;;8.77;63.86;100633.34;5045466;28;20561;-83
2022/03/05 05:21:53;;;;;;;12.73;5.83;;;;;;;8.40;63.77;100560.13;5049169;28;20565;-86
2022/03/05 05:24:20;;;;;;;8.10;3.37;;;;;;;8.35;63.97;100562.84;5050946;28;20534;-87
2022/03/05 05:26:47;;;;;;;7.57;4.63;;;;;;;8.31;63.98;100543.06;5051409;28;20191;-84
2022/03/05 05:29:14;;;;;;;9.33;3.70;;;;;;;8.74;63.85;100617.19;5053656;28;20136;-83
2022/03/05 05:32:00;;;;;;;7.40;4.50;;;;;;;8.75;63.78;100613.31;5040339;28;20063;-83
2022/03/05 05:34:27;;;;;;;19.83;5.17;;;;;;;8.70;63.53;100610.47;5044717;28;20080;-88
2022/03/05 05:36:54;;;;;;;11.57;5.73;;;;;;;8.38;63.67;100548.44;5047777;28;20085;-80
2022/03/05 05:39:21;;;;;;;6.93;3.80;;;;;;;8.73;63.90;100609.09;5046527;28;20060;-85
2022/03/05 05:41:48;;;;;;;2.77;2.20;;;;;;;8.28;64.03;100560.28;5032512;28;20520;-85
2022/03/05 05:44:15;;;;;;;10.57;4.37;;;;;;;8.10;64.27;100542.03;5047750;28;20049;-88
2022/03/05 05:46:42;;;;;;;9.83;5.07;;;;;;;8.50;64.17;100597.22;5050220;28;20500;-81
2022/03/05 05:49:09;;;;;;;6.50;5.30;;;;;;;8.13;64.30;100544.28;5047957;28;20044;-79
2022/03/05 05:51:36;;;;;;;11.73;7.00;;;;;;;8.49;64.56;100611.41;5046153;28;20195;-79
2022/03/05 05:54:03;;;;;;;23.00;5.20;;;;;;;8.35;64.80;100607.38;5056274;28;20087;-91
2022/03/05 05:56:30;;;;;;;6.30;3.60;;;;;;;7.94;65.13;100543.03;5045894;28;20061;-88
2022/03/05 05:58:58;;;;;;;7.10;5.13;;;;;;;8.36;64.75;100601.53;5056040;28;20572;-84
2022/03/05 06:01:25;;;;;;;6.50;4.10;;;;;;;7.61;64.67;100472.63;5049595;28;20377;-89
2022/03/05 06:03:54;;;;;;;6.30;3.47;;;;;;;8.27;64.70;100584.50;5037994;28;20041;-87
2022/03/05 06:06:21;;;;;;;8.53;3.37;;;;;;;8.08;64.60;100544.25;5059257;28;20132;-85
2022/03/05 06:08:49;;;;;;;9.03;4.47;;;;;;;8.37;64.85;100597.63;5071164;28;20053;-85
2022/03/05 06:11:16;;;;;;;7.33;4.60;;;;;;;7.69;64.53;100479.66;5071928;28;20052;-83
2022/03/05 06:13:43;;;;;;;6.53;3.50;;;;;;;8.49;64.65;100605.84;5057316;28;20403;-82
2022/03/05 06:16:11;;;;;;;13.33;6.03;;;;;;;8.54;64.15;100598.38;5051979;28;20500;-82
2022/03/05 06:18:39;;;;;;;19.43;7.57;;;;;;;8.50;63.04;100546.28;5061456;28;20091;-82
2022/03/05 06:21:05;;;;;;;17.77;6.80;;;;;;;9.08;62.77;100611.28;5059961;28;20083;-83
2022/03/05 06:23:33;;;;;;;16.10;5.63;;;;;;;9.04;62.62;100596.22;5053822;28;20055;-82
2022/03/05 06:25:59;;;;;;;12.63;6.47;;;;;;;8.97;62.91;100604.81;5064811;28;20045;-82
2022/03/05 06:28:27;;;;;;;10.53;5.33;;;;;;;8.87;63.06;100607.53;5065345;28;20060;-85
2022/03/05 06:30:54;;;;;;;15.00;6.27;;;;;;;8.83;63.12;100606.41;5077649;28;20036;-85
2022/03/05 06:33:21;;;;;;;14.23;6.10;;;;;;;8.66;63.27;100589.00;5080726;28;20618;-85
2022/03/05 06:35:48;;;;;;;10.83;5.43;;;;;;;8.28;63.31;100543.59;5078608;28;20029;-85
2022/03/05 06:38:15;;;;;;;4.37;3.07;;;;;;;8.51;63.82;100590.59;5075463;28;20049;-83
2022/03/05 06:40:42;;;;;;;13.40;3.77;;;;;;;8.28;64.19;100582.56;5068363;28;20048;-82
2022/03/05 06:43:09;;;;;;;9.37;4.57;;;;;;;8.24;64.42;100576.69;5064445;28;20052;-84
2022/03/05 06:45:36;;;;;;;6.70;4.37;;;;;;;8.35;64.35;100593.47;5036755;28;20136;-84
2022/03/05 06:48:05;;;;;;;8.50;4.50;;;;;;;8.08;64.39;100547.88;5050923;28;20071;-85
2022/03/05 06:50:32;;;;;;;10.57;5.27;;;;;;;7.82;64.44;100513.41;5058689;28;20102;-86
2022/03/05 06:52:58;;;;;;;10.73;4.43;;;;;;;8.41;63.93;100598.84;5064966;28;20064;-88
2022/03/05 06:55:26;;;;;;;11.93;6.27;;;;;;;8.42;63.98;100578.25;5059729;28;20056;-88
2022/03/05 06:57:53;;;;;;;13.67;5.63;;;;;;;8.14;63.81;100526.53;5057068;28;23059;-89
2022/03/05 07:00:20;;;;;;;17.33;5.20;;;;;;;8.67;63.70;100590.69;5054528;28;20053;-86
2022/03/05 07:02:48;;;;;;;15.20;5.33;;;;;;;8.03;63.51;100492.22;5062367;28;20049;-83
2022/03/05 07:05:15;;;;;;;9.00;6.00;;;;;;;8.26;63.49;100529.94;5058089;28;20064;-86
2022/03/05 07:07:43;;;;;;;10.07;4.87;;;;;;;8.64;63.54;100594.84;5068760;28;20060;-87
2022/03/05 07:10:10;;;;;;;11.37;6.00;;;;;;;8.62;63.51;100599.84;5078453;28;20052;-82
2022/03/05 07:12:37;;;;;;;13.00;7.07;;;;;;;8.84;62.90;100610.03;5071061;28;20053;-78
2022/03/05 07:15:05;;;;;;;10.20;5.23;;;;;;;8.74;63.00;100591.28;5068711;28;20098;-83
2022/03/05 07:17:32;;;;;;;21.33;7.17;;;;;;;8.84;62.99;100604.44;5070379;28;20056;-84
2022/03/05 07:19:59;;;;;;;12.70;6.47;;;;;;;8.80;63.00;100594.97;5071358;28;20057;-82
2022/03/05 07:22:26;;;;;;;12.17;5.83;;;;;;;8.52;62.74;100547.72;5070446;28;20053;-82
2022/03/05 07:24:53;;;;;;;16.97;5.70;;;;;;;8.77;62.78;100590.75;5056707;28;20106;-81
2022/03/05 07:27:19;;;;;;;8.37;5.53;;;;;;;8.72;62.83;100583.22;5062673;28;20071;-81
2022/03/05 07:29:46;;;;;;;10.83;5.73;;;;;;;8.73;62.67;100595.19;5060809;28;20049;-80
2022/03/05 07:32:14;;;;;;;15.07;6.47;;;;;;;8.72;63.08;100604.66;5061874;28;20055;-81
2022/03/05 07:34:40;;;;;;;15.13;6.80;;;;;;;8.45;62.93;100537.94;5062600;28;22353;-81
2022/03/05 07:37:07;;;;;;;11.23;4.43;;;;;;;8.77;62.61;100574.06;5042301;28;20495;-81
2022/03/05 07:39:34;;;;;;;11.70;5.47;;;;;;;8.86;62.58;100599.47;5047431;28;20057;-81
2022/03/05 07:42:02;;;;;;;12.83;6.50;;;;;;;8.96;62.43;100600.38;5055809;28;20056;-79
2022/03/05 07:44:30;;;;;;;17.20;7.37;;;;;;;8.60;62.50;100539.97;5053606;28;20052;-78
2022/03/05 07:46:58;;;;;;;7.87;5.57;;;;;;;8.93;62.72;100606.47;5050069;28;20049;-79
2022/03/05 07:49:24;;;;;;;4.07;2.83;;;;;;;8.56;62.64;100539.66;5055866;28;20052;-79
2022/03/05 07:51:52;;;;;;;6.23;3.43;;;;;;;8.83;62.63;100611.97;5053463;28;20053;-81
2022/03/05 07:54:19;;;;;;;9.30;4.83;;;;;;;8.77;62.68;100596.31;5057732;28;20045;-78
2022/03/05 07:56:46;;;;;;;8.37;3.63;;;;;;;8.84;62.57;100605.28;5054939;28;20045;-82
2022/03/05 07:59:14;;;;;;;8.13;4.87;;;;;;;8.49;62.89;100564.13;5053499;28;20052;-85
2022/03/05 08:01:41;;;;;;;9.70;4.43;;;;;;;8.77;62.75;100605.50;5047187;28;20077;-84
2022/03/05 08:04:11;;;;;;;8.13;3.65;;;;;;;8.84;62.61;100610.84;5049827;28;20480;-86
2022/03/05 08:06:37;;;;;;;7.27;3.47;;;;;;;8.76;62.69;100601.06;5045867;28;20056;-77
2022/03/05 08:09:04;;;;;;;9.13;5.60;;;;;;;8.86;62.37;100605.03;5046501;28;20146;-77
2022/03/05 08:11:31;;;;;;;11.50;3.80;;;;;;;8.96;62.11;100613.47;5028827;28;20141;-77
2022/03/05 08:13:58;;;;;;;13.73;5.90;;;;;;;9.04;62.10;100607.38;5050190;28;20045;-77
2022/03/05 08:16:25;;;;;;;8.50;4.83;;;;;;;8.70;61.83;100556.75;5047943;28;20095;-81
2022/03/05 08:18:52;;;;;;;8.47;4.20;;;;;;;8.61;62.11;100558.34;5049017;28;20109;-82
2022/03/05 08:21:26;;;;;;;10.13;5.20;;;;;;;8.39;61.64;100497.25;5046842;28;20514;-79
2022/03/05 08:23:54;;;;;;;11.57;3.30;;;;;;;8.15;61.58;100467.00;5046759;28;20136;-82
2022/03/05 08:26:21;;;;;;;7.97;4.20;;;;;;;9.29;61.40;100637.31;5046920;28;20176;-81
2022/03/05 08:28:48;;;;;;;10.93;4.70;;;;;;;9.28;61.42;100637.59;5046364;28;20143;-81
2022/03/05 08:31:15;;;;;;;10.13;5.03;;;;;;;9.25;61.42;100619.47;5047288;28;20099;-80
2022/03/05 08:33:42;;;;;;;8.37;4.80;;;;;;;9.29;61.42;100623.38;5046167;28;20041;-82
2022/03/05 08:36:10;;;;;;;9.33;6.27;;;;;;;8.95;61.33;100564.41;5051838;28;20484;-82
2022/03/05 08:38:37;;;;;;;15.13;5.93;;;;;;;9.20;61.41;100595.22;5052966;28;20075;-82
2022/03/05 08:41:04;;;;;;;9.27;4.83;;;;;;;9.20;61.21;100600.78;5053506;28;20044;-82
2022/03/05 08:43:31;;;;;;;9.93;6.07;;;;;;;9.31;61.04;100609.19;5058609;28;20045;-82
2022/03/05 08:46:01;;;;;;;13.53;6.43;;;;;;;9.38;60.81;100613.41;5060564;28;20045;-81
2022/03/05 08:48:28;;;;;;;5.70;4.25;;;;;;;9.54;60.96;100628.28;5058728;28;20099;-83
2022/03/05 08:50:55;;;;;;;13.97;6.53;;;;;;;9.59;60.61;100630.22;5054264;28;20055;-82
2022/03/05 08:53:22;;;;;;;12.43;6.53;;;;;;;9.41;60.63;100598.09;5058925;28;20053;-82
2022/03/05 08:55:49;;;;;;;10.20;6.20;;;;;;;8.91;60.67;100535.44;5060908;28;20052;-81
2022/03/05 08:58:16;;;;;;;10.53;5.03;;;;;;;9.60;60.61;100641.09;5060178;28;20048;-82
2022/03/05 09:00:43;;;;;;;14.40;8.00;;;;;;;9.31;60.55;100578.53;5058549;28;20044;-86
2022/03/05 09:03:11;;;;;;;9.50;5.60;;;;;;;9.68;60.61;100637.81;5058432;28;20056;-84
2022/03/05 09:05:40;;;;;;;9.47;5.37;;;;;;;9.59;60.39;100617.13;5067271;28;20645;-84
2022/03/05 09:08:08;;;;;;;10.93;4.77;;;;;;;9.78;60.18;100627.78;5053362;28;20045;-85
2022/03/05 09:10:35;;;;;;;15.93;7.57;;;;;;;10.04;60.01;100645.44;5034152;28;20053;-83
2022/03/05 09:13:02;;;;;;;14.23;6.70;;;;;;;10.24;59.74;100653.03;5066417;28;20032;-84
2022/03/05 09:15:29;;;;;;;8.63;5.30;;;;;;;10.26;59.81;100648.88;5070215;28;20959;-82
2022/03/05 09:17:56;;;;;;;10.53;6.20;;;;;;;10.16;59.64;100627.34;5053495;28;20052;-81
2022/03/05 09:20:23;;;;;;;9.27;5.63;;;;;;;9.84;59.34;100570.91;5055054;28;20052;-88
2022/03/05 09:22:50;;;;;;;18.07;7.87;;;;;;;10.35;59.36;100647.22;5053472;28;20460;-87
2022/03/05 09:25:17;;;;;;;28.03;7.03;;;;;;;9.58;59.10;100515.09;5028842;28;20049;-89
2022/03/05 09:27:45;;;;;;;9.13;5.07;;;;;;;10.28;59.30;100646.66;5030516;28;20602;-86
2022/03/05 09:30:12;;;;;;;17.67;7.43;;;;;;;9.51;59.29;100517.31;5047734;28;20091;-90
2022/03/05 09:32:39;;;;;;;9.50;6.37;;;;;;;10.11;59.22;100632.91;5047570;28;20510;-88
2022/03/05 09:35:06;;;;;;;13.13;6.83;;;;;;;9.53;59.20;100545.72;5053110;28;20114;-75
2022/03/05 09:37:34;;;;;;;6.33;4.40;;;;;;;9.92;59.32;100613.06;5050113;28;20045;-74
2022/03/05 09:40:08;;;;;;;4.63;3.67;;;;;;;9.93;58.96;100609.16;5048083;28;20393;-82
2022/03/05 09:42:39;;;;;;;8.25;2.55;;;;;;;9.99;58.93;100646.28;5046701;28;20144;-87
2022/03/05 09:45:06;;;;;;;4.10;3.27;;;;;;;9.88;58.77;100639.84;5047931;28;20041;-76
2022/03/05 09:47:37;;;;;;;11.63;5.20;;;;;;;9.92;58.32;100640.97;5047379;28;20044;-81
2022/03/05 09:50:06;;;;;;;3.90;2.73;;;;;;;9.84;58.62;100643.44;5051459;28;20049;-79
2022/03/05 09:52:36;;;;;;;3.27;2.40;;;;;;;9.92;58.15;100645.69;5048639;28;20055;-82
2022/03/05 09:55:05;;;;;;;7.03;4.03;;;;;;;9.73;58.35;100637.81;5023522;28;20107;-81
2022/03/05 09:57:32;;;;;;;6.60;3.23;;;;;;;9.66;57.86;100614.91;5045040;28;20104;-74
2022/03/05 10:00:00;;;;;;;2.83;1.10;;;;;;;9.75;57.62;100633.94;5043838;28;20503;-74
2022/03/05 10:02:27;;;;;;;5.20;2.47;;;;;;;9.79;57.46;100640.63;5047816;28;20049;-78
2022/03/05 10:05:13;;;;;;;3.17;2.20;;;;;;;9.70;57.15;100626.38;5043580;28;20041;-76
2022/03/05 10:07:58;;;;;;;9.43;3.70;;;;;;;9.72;56.68;100585.13;5028435;28;20147;-75
2022/03/05 10:10:26;;;;;;;4.37;2.93;;;;;;;10.02;56.57;100609.47;5041573;28;20462;-75
2022/03/05 10:12:53;;;;;;;5.67;2.97;;;;;;;10.09;56.48;100621.19;5051475;28;20045;-76
2022/03/05 10:15:21;;;;;;;3.03;1.83;;;;;;;10.09;56.53;100615.63;5049205;28;20063;-76
2022/03/05 10:17:56;;;;;;;4.97;2.03;;;;;;;10.01;56.24;100621.72;5040905;28;20099;-78
2022/03/05 10:20:31;;;;;;;2.53;2.33;;;;;;;10.04;56.48;100626.75;5044995;28;20091;-75
2022/03/05 10:23:00;;;;;;;1.67;1.17;;;;;;;10.07;56.21;100615.03;5040749;28;20081;-76
2022/03/05 10:25:49;;;;;;;4.27;3.13;;;;;;;10.14;55.82;100625.94;5043586;28;20098;-78
2022/03/05 10:28:17;;;;;;;6.10;3.10;;;;;;;10.19;55.39;100618.44;5049408;28;20080;-76
2022/03/05 10:30:46;;;;;;;1.87;1.33;;;;;;;10.20;55.39;100622.06;5050988;28;20061;-75
2022/03/05 10:33:37;;;;;;;5.28;3.08;;;;;;;10.34;54.91;100625.16;5038921;28;20210;-74
2022/03/05 10:36:08;;;;;;;2.63;1.70;;;;;;;10.08;54.70;100560.06;5048613;28;20190;-78
2022/03/05 10:39:04;;;;;;;;;;;;;;;10.62;54.73;100616.25;5042369;28;20053;-81
2022/03/05 10:41:41;;;;;;;3.17;2.27;;;;;;;10.73;54.35;100616.25;5071621;28;19909;-85
2022/03/05 10:44:15;;;;;;;5.93;4.03;;;;;;;10.66;54.91;100600.59;5074702;28;20029;-84
2022/03/05 10:46:43;;;;;;;7.03;3.30;;;;;;;10.63;54.76;100584.44;5071058;28;20068;-83
2022/03/05 10:49:21;;;;;;;7.13;3.00;;;;;;;10.81;54.72;100624.06;5064596;28;20053;-89
2022/03/05 10:51:51;;;;;;;7.73;3.50;;;;;;;10.88;54.42;100594.72;5041953;28;20029;-81
2022/03/05 10:54:28;;;;;;;6.65;3.55;;;;;;;11.14;54.40;100622.59;5072589;28;20047;-76
2022/03/05 10:56:56;;;;;;;6.03;3.27;;;;;;;11.12;54.78;100619.28;5071670;28;20037;-77
2022/03/05 10:59:23;;;;;;;4.27;2.30;;;;;;;10.99;54.79;100591.91;5069565;28;20029;-76
2022/03/05 11:01:50;;;;;;;6.10;3.07;;;;;;;11.09;54.85;100584.34;5070327;28;20041;-74
2022/03/05 11:04:18;;;;;;;5.80;2.30;;;;;;;11.26;54.86;100591.56;5050362;28;20092;-76
2022/03/05 11:06:45;;;;;;;3.97;2.30;;;;;;;10.72;54.79;100480.50;5047867;28;20142;-76
2022/03/05 11:09:13;;;;;;;5.33;2.87;;;;;;;11.56;54.93;100585.88;5046783;28;20573;-77
2022/03/05 11:11:43;;;;;;;5.10;2.60;;;;;;;11.75;54.82;100588.84;5055195;28;20053;-76
2022/03/05 11:14:14;;;;;;;3.65;1.85;;;;;;;11.27;54.56;100546.53;5052056;28;20515;-76
2022/03/05 11:16:43;;;;;;;4.80;2.17;;;;;;;11.54;54.88;100588.09;5051642;28;20132;-76
2022/03/05 11:19:10;;;;;;;6.07;2.37;;;;;;;11.42;55.23;100578.34;5054026;28;20095;-77
2022/03/05 11:21:37;;;;;;;3.23;1.53;;;;;;;11.04;55.86;100563.94;5054178;28;20118;-75
2022/03/05 11:24:06;;;;;;;1.60;1.07;;;;;;;11.12;56.28;100586.56;5052759;28;20073;-77
2022/03/05 11:26:37;;;;;;;8.27;3.00;;;;;;;10.83;55.78;100529.63;5055409;28;20130;-78
2022/03/05 11:29:28;;;;;;;12.93;6.63;;;;;;;11.26;55.88;100581.22;5040170;28;20047;-75
2022/03/05 11:32:12;;;;;;;2.43;1.60;;;;;;;11.13;55.59;100543.50;5051445;28;20093;-76
2022/03/05 11:34:48;;;;;;;5.13;2.73;;;;;;;11.35;55.80;100590.69;5050972;28;20115;-76